createdAt,value
2018-10-17T00:02:27.869Z,101417.02
2018-10-17T00:04:58.572Z,101410.13
2018-10-17T00:07:28.001Z,101415.93
2018-10-17T00:09:58.517Z,101412.64
2018-10-17T00:12:28.188Z,101420.72
2018-10-17T00:14:57.745Z,101420.27
2018-10-17T00:17:27.276Z,101426.12
2018-10-17T00:19:56.591Z,101426.71
2018-10-17T00:22:26.209Z,101429.41
2018-10-17T00:24:55.691Z,101430.41
2018-10-17T00:27:26.200Z,101428.25
2018-10-17T00:29:56.543Z,101429.95
2018-10-17T00:32:26.088Z,101433.16
2018-10-17T00:34:55.895Z,101434.78
2018-10-17T00:37:24.557Z,101433.80
2018-10-17T00:39:54.032Z,101436.23
2018-10-17T00:42:22.624Z,101426.95
2018-10-17T00:44:51.742Z,101424.42
2018-10-17T00:47:20.361Z,101417.92
2018-10-17T00:49:48.920Z,101422.79
2018-10-17T00:52:17.570Z,101427.27
2018-10-17T00:54:46.178Z,101421.22
2018-10-17T00:57:14.774Z,101421.12
2018-10-17T00:59:43.311Z,101417.42
2018-10-17T01:02:11.877Z,101417.69
2018-10-17T01:04:41.322Z,101412.19
2018-10-17T01:07:09.948Z,101411.69
2018-10-17T01:09:39.409Z,101417.48
2018-10-17T01:12:09.036Z,101417.92
2018-10-17T01:14:37.571Z,101413.07
2018-10-17T01:17:06.307Z,101415.36
2018-10-17T01:19:35.773Z,101418.77
2018-10-17T01:22:04.395Z,101426.49
2018-10-17T01:24:32.980Z,101420.05
2018-10-17T01:27:01.558Z,101422.33
2018-10-17T01:29:31.179Z,101420.69
2018-10-17T01:31:59.793Z,101423.33
2018-10-17T01:34:28.353Z,101419.92
2018-10-17T01:36:57.260Z,101416.45
2018-10-17T01:39:26.494Z,101424.71
2018-10-17T01:41:55.722Z,101415.10
2018-10-17T01:44:25.985Z,101415.10
2018-10-17T01:46:54.603Z,101414.29
2018-10-17T01:49:24.051Z,101420.37
2018-10-17T01:51:52.591Z,101419.58
2018-10-17T01:54:21.151Z,101414.48
2018-10-17T01:56:49.740Z,101408.41
2018-10-17T01:59:18.291Z,101409.34
2018-10-17T02:01:46.929Z,101410.23
2018-10-17T02:04:15.495Z,101411.27
2018-10-17T02:06:44.052Z,101400.13
2018-10-17T02:09:12.590Z,101409.77
2018-10-17T02:11:41.143Z,101399.90
2018-10-17T02:14:09.681Z,101399.09
2018-10-17T02:16:38.225Z,101398.69
2018-10-17T02:19:06.800Z,101406.10
2018-10-17T02:21:35.435Z,101405.70
2018-10-17T02:24:03.978Z,101394.44
2018-10-17T02:26:33.848Z,101396.86
2018-10-17T02:29:02.499Z,101402.05
2018-10-17T02:31:31.802Z,101400.34
2018-10-17T02:34:01.342Z,101402.89
2018-10-17T02:36:29.842Z,101409.28
2018-10-17T02:38:58.381Z,101404.23
2018-10-17T02:41:27.297Z,101397.44
2018-10-17T02:43:57.409Z,101404.08
2018-10-17T02:46:26.994Z,101397.97
2018-10-17T02:48:55.792Z,101397.16
2018-10-17T02:51:25.689Z,101403.39
2018-10-17T02:53:55.507Z,101405.09
2018-10-17T02:56:24.083Z,101404.36
2018-10-17T02:58:52.658Z,101408.40
2018-10-17T03:01:21.220Z,101414.47
2018-10-17T03:03:49.728Z,101411.52
2018-10-17T03:06:18.245Z,101408.44
2018-10-17T03:08:46.817Z,101407.59
2018-10-17T03:11:15.428Z,101409.22
2018-10-17T03:13:43.967Z,101413.22
2018-10-17T03:16:13.511Z,101405.92
2018-10-17T03:18:42.049Z,101405.48
2018-10-17T03:21:10.570Z,101403.27
2018-10-17T03:23:39.108Z,101408.81
2018-10-17T03:26:07.672Z,101409.22
2018-10-17T03:28:36.198Z,101409.22
2018-10-17T03:31:04.757Z,101402.33
2018-10-17T03:33:33.337Z,101397.23
2018-10-17T03:36:02.084Z,101407.63
2018-10-17T03:38:30.441Z,101415.80
2018-10-17T03:40:59.008Z,101413.62
2018-10-17T03:43:28.814Z,101415.31
2018-10-17T03:45:57.981Z,101416.42
2018-10-17T03:48:27.133Z,101422.82
2018-10-17T03:50:55.675Z,101420.38
2018-10-17T03:53:24.798Z,101417.62
2018-10-17T03:55:53.329Z,101430.59
2018-10-17T03:58:21.875Z,101434.15
2018-10-17T04:00:50.758Z,101423.05
2018-10-17T04:03:19.326Z,101434.73
2018-10-17T04:05:47.891Z,101435.66
2018-10-17T04:08:16.434Z,101434.42
2018-10-17T04:10:45.004Z,101424.55
2018-10-17T04:13:14.448Z,101436.81
2018-10-17T04:15:43.006Z,101437.55
2018-10-17T04:18:11.576Z,101438.06
2018-10-17T04:20:41.059Z,101432.96
2018-10-17T04:23:09.657Z,101433.00
2018-10-17T04:25:38.326Z,101432.48
2018-10-17T04:28:06.899Z,101431.08
2018-10-17T04:30:35.448Z,101434.18
2018-10-17T04:33:03.981Z,101435.52
2018-10-17T04:35:32.554Z,101440.35
2018-10-17T04:38:01.176Z,101434.25
2018-10-17T04:40:29.747Z,101421.83
2018-10-17T04:42:58.351Z,101429.93
2018-10-17T04:45:28.020Z,101427.41
2018-10-17T04:47:57.272Z,101430.85
2018-10-17T04:50:26.583Z,101436.03
2018-10-17T04:52:56.811Z,101434.70
2018-10-17T04:55:25.708Z,101432.17
2018-10-17T04:57:54.696Z,101439.70
2018-10-17T05:00:26.061Z,101437.00
2018-10-17T05:02:55.591Z,101439.25
2018-10-17T05:05:25.328Z,101450.16
2018-10-17T05:07:54.029Z,101446.45
2018-10-17T05:10:22.658Z,101446.52
2018-10-17T05:12:52.472Z,101449.20
2018-10-17T05:15:21.287Z,101452.36
2018-10-17T05:17:50.054Z,101459.63
2018-10-17T05:20:20.061Z,101463.91
2018-10-17T05:22:48.666Z,101466.37
2018-10-17T05:25:17.266Z,101465.71
2018-10-17T05:27:45.828Z,101467.91
2018-10-17T05:30:15.390Z,101467.38
2018-10-17T05:32:43.991Z,101467.35
2018-10-17T05:35:12.674Z,101470.91
2018-10-17T05:37:41.338Z,101472.15
2018-10-17T05:40:09.973Z,101473.76
2018-10-17T05:42:38.463Z,101471.61
2018-10-17T05:45:08.203Z,101469.88
2018-10-17T05:47:36.931Z,101479.84
2018-10-17T05:50:05.661Z,101471.14
2018-10-17T05:52:34.234Z,101480.00
2018-10-17T05:55:02.841Z,101476.28
2018-10-17T05:57:32.048Z,101481.96
2018-10-17T06:00:00.586Z,101478.58
2018-10-17T06:02:31.948Z,101479.44
2018-10-17T06:05:01.160Z,101483.76
2018-10-17T06:07:30.226Z,101481.61
2018-10-17T06:09:58.805Z,101492.38
2018-10-17T06:12:28.137Z,101491.52
2018-10-17T06:14:57.531Z,101491.81
2018-10-17T06:17:26.654Z,101489.12
2018-10-17T06:19:56.206Z,101484.80
2018-10-17T06:22:25.431Z,101484.80
2018-10-17T06:24:55.756Z,101484.25
2018-10-17T06:27:26.181Z,101473.94
2018-10-17T06:29:55.982Z,101483.44
2018-10-17T06:32:26.018Z,101485.99
2018-10-17T06:34:55.653Z,101474.24
2018-10-17T06:37:25.868Z,101475.84
2018-10-17T06:39:56.077Z,101477.70
2018-10-17T06:42:24.637Z,101485.80
2018-10-17T06:44:54.082Z,101484.27
2018-10-17T06:47:22.701Z,101480.31
2018-10-17T06:49:52.177Z,101484.16
2018-10-17T06:52:21.795Z,101483.63
2018-10-17T06:54:50.459Z,101481.37
2018-10-17T06:57:20.073Z,101479.05
2018-10-17T06:59:48.640Z,101482.50
2018-10-17T07:02:17.288Z,101473.83
2018-10-17T07:04:46.871Z,101479.78
2018-10-17T07:07:16.423Z,101483.77
2018-10-17T07:09:44.954Z,101485.83
2018-10-17T07:12:13.550Z,101483.09
2018-10-17T07:14:42.164Z,101490.34
2018-10-17T07:17:10.822Z,101494.38
2018-10-17T07:19:39.659Z,101493.77
2018-10-17T07:22:08.235Z,101495.82
2018-10-17T07:24:36.890Z,101496.12
2018-10-17T07:27:06.300Z,101497.13
2018-10-17T07:29:36.023Z,101505.41
2018-10-17T07:32:04.613Z,101503.95
2018-10-17T07:34:34.135Z,101508.20
2018-10-17T07:37:02.726Z,101508.05
2018-10-17T07:39:32.313Z,101508.34
2018-10-17T07:42:01.867Z,101512.86
2018-10-17T07:44:30.477Z,101504.13
2018-10-17T07:46:59.446Z,101505.97
2018-10-17T07:49:28.094Z,101504.94
2018-10-17T07:51:57.278Z,101502.61
2018-10-17T07:54:27.343Z,101507.12
2018-10-17T07:56:56.577Z,101506.42
2018-10-17T07:59:27.333Z,101511.25
2018-10-17T08:01:57.574Z,101513.34
2018-10-17T08:04:28.184Z,101514.36
2018-10-17T08:06:57.583Z,101513.75
2018-10-17T08:09:27.991Z,101512.44
2018-10-17T08:11:58.711Z,101519.33
2018-10-17T08:14:28.192Z,101511.16
2018-10-17T08:16:58.763Z,101515.83
2018-10-17T08:19:28.331Z,101517.11
2018-10-17T08:21:58.001Z,101513.47
2018-10-17T08:24:27.932Z,101514.73
2018-10-17T08:26:58.184Z,101514.34
2018-10-17T08:29:28.997Z,101519.41
2018-10-17T08:31:59.308Z,101520.01
2018-10-17T08:34:28.804Z,101517.55
2018-10-17T08:36:58.545Z,101518.73
2018-10-17T08:39:27.784Z,101521.78
2018-10-17T08:41:57.780Z,101524.44
2018-10-17T08:44:28.464Z,101523.91
2018-10-17T08:46:57.964Z,101524.38
2018-10-17T08:49:27.741Z,101527.17
2018-10-17T08:51:56.942Z,101524.13
2018-10-17T08:54:27.672Z,101523.62
2018-10-17T08:56:57.854Z,101526.11
2018-10-17T08:59:28.123Z,101526.11
2018-10-17T09:01:58.736Z,101526.71
2018-10-17T09:04:28.448Z,101527.83
2018-10-17T09:06:57.593Z,101528.61
2018-10-17T09:09:26.930Z,101531.59
2018-10-17T09:11:56.912Z,101524.80
2018-10-17T09:14:26.993Z,101523.08
2018-10-17T09:16:56.901Z,101521.17
2018-10-17T09:19:26.348Z,101519.94
2018-10-17T09:21:56.086Z,101514.59
2018-10-17T09:24:25.474Z,101509.69
2018-10-17T09:26:54.140Z,101509.80
2018-10-17T09:29:22.725Z,101511.89
2018-10-17T09:31:52.112Z,101515.78
2018-10-17T09:34:20.693Z,101517.48
2018-10-17T09:36:50.284Z,101510.38
2018-10-17T09:39:19.856Z,101512.29
2018-10-17T09:41:48.497Z,101510.62
2018-10-17T09:44:17.075Z,101508.16
2018-10-17T09:46:45.721Z,101510.16
2018-10-17T09:49:15.317Z,101502.55
2018-10-17T09:51:44.807Z,101499.30
2018-10-17T09:54:14.352Z,101500.25
2018-10-17T09:56:43.953Z,101499.03
2018-10-17T09:59:12.519Z,101505.18
2018-10-17T10:01:47.184Z,101498.75
2018-10-17T10:04:16.866Z,101492.61
2018-10-17T10:06:46.633Z,101493.30
2018-10-17T10:09:15.184Z,101494.36
2018-10-17T10:11:43.748Z,101496.21
2018-10-17T10:14:13.292Z,101491.69
2018-10-17T10:16:41.854Z,101487.63
2018-10-17T10:19:10.468Z,101488.30
2018-10-17T10:21:39.025Z,101488.17
2018-10-17T10:24:07.709Z,101489.13
2018-10-17T10:26:36.261Z,101487.84
2018-10-17T10:29:04.910Z,101479.95
2018-10-17T10:31:33.481Z,101480.22
2018-10-17T10:34:02.095Z,101479.16
2018-10-17T10:36:30.656Z,101477.68
2018-10-17T10:38:59.234Z,101475.84
2018-10-17T10:41:27.918Z,101468.26
2018-10-17T10:43:57.018Z,101470.26
2018-10-17T10:46:26.028Z,101465.88
2018-10-17T10:48:54.965Z,101463.94
2018-10-17T10:51:23.726Z,101469.41
2018-10-17T10:53:52.162Z,101463.77
2018-10-17T10:56:20.739Z,101457.02
2018-10-17T10:58:49.471Z,101454.68
2018-10-17T11:01:18.269Z,101455.33
2018-10-17T11:03:47.894Z,101447.00
2018-10-17T11:06:16.432Z,101446.70
2018-10-17T11:08:45.007Z,101446.97
2018-10-17T11:11:13.617Z,101449.88
2018-10-17T11:13:43.105Z,101447.80
2018-10-17T11:16:11.658Z,101446.38
2018-10-17T11:18:41.898Z,101439.78
2018-10-17T11:21:10.539Z,101440.41
2018-10-17T11:23:39.135Z,101435.12
2018-10-17T11:26:07.702Z,101433.69
2018-10-17T11:28:36.288Z,101432.63
2018-10-17T11:31:04.876Z,101431.78
2018-10-17T11:33:33.433Z,101431.66
2018-10-17T11:36:02.017Z,101434.12
2018-10-17T11:38:30.614Z,101429.84
2018-10-17T11:40:59.232Z,101428.31
2018-10-17T11:43:28.421Z,101422.55
2018-10-17T11:45:57.452Z,101421.16
2018-10-17T11:48:26.669Z,101422.84
2018-10-17T11:50:56.355Z,101420.08
2018-10-17T11:53:26.486Z,101418.15
2018-10-17T11:55:55.503Z,101412.14
2018-10-17T11:58:24.079Z,101418.79
2018-10-17T12:00:52.695Z,101411.18
2018-10-17T12:03:21.609Z,101405.95
2018-10-17T12:05:50.378Z,101402.95
2018-10-17T12:08:18.809Z,101398.27
2018-10-17T12:10:47.421Z,101400.95
2018-10-17T12:13:15.962Z,101395.77
2018-10-17T12:15:45.012Z,101392.77
2018-10-17T12:18:13.862Z,101392.40
2018-10-17T12:20:42.432Z,101397.77
2018-10-17T12:23:11.008Z,101396.92
2018-10-17T12:25:39.612Z,101399.57
2018-10-17T12:28:08.386Z,101398.77
2018-10-17T12:30:36.871Z,101391.08
2018-10-17T12:33:06.598Z,101394.97
2018-10-17T12:35:35.152Z,101391.72
2018-10-17T12:38:03.722Z,101395.97
2018-10-17T12:40:32.421Z,101396.36
2018-10-17T12:43:00.898Z,101393.40
2018-10-17T12:45:29.481Z,101395.28
2018-10-17T12:47:58.079Z,101391.96
2018-10-17T12:50:27.534Z,101394.11
2018-10-17T12:52:57.256Z,101390.05
2018-10-17T12:55:26.830Z,101396.56
2018-10-17T12:57:55.943Z,101392.16
2018-10-17T13:00:24.487Z,101390.84
2018-10-17T13:02:53.038Z,101384.63
2018-10-17T13:05:21.624Z,101387.95
2018-10-17T13:07:50.236Z,101394.92
2018-10-17T13:10:18.808Z,101386.63
2018-10-17T13:12:47.370Z,101383.63
2018-10-17T13:15:15.971Z,101382.19
2018-10-17T13:17:45.825Z,101375.27
2018-10-17T13:20:14.831Z,101378.38
2018-10-17T13:22:43.395Z,101379.91
2018-10-17T13:25:12.102Z,101381.83
2018-10-17T13:27:40.615Z,101378.55
2018-10-17T13:30:09.523Z,101373.35
2018-10-17T13:32:38.286Z,101379.35
2018-10-17T13:35:07.499Z,101380.23
2018-10-17T13:37:36.393Z,101378.98
2018-10-17T13:40:05.174Z,101377.27
2018-10-17T13:42:33.736Z,101379.91
2018-10-17T13:45:02.413Z,101380.62
2018-10-17T13:47:31.317Z,101380.46
2018-10-17T13:50:00.147Z,101377.14
2018-10-17T13:52:28.646Z,101371.42
2018-10-17T13:54:57.888Z,101373.27
2018-10-17T13:57:27.576Z,101370.14
2018-10-17T13:59:56.812Z,101369.09
2018-10-17T14:02:25.696Z,101364.89
2018-10-17T14:04:54.784Z,101361.32
2018-10-17T14:07:25.049Z,101360.80
2018-10-17T14:09:53.590Z,101365.23
2018-10-17T14:12:22.153Z,101356.95
2018-10-17T14:14:50.701Z,101354.78
2018-10-17T14:17:19.255Z,101358.75
2018-10-17T14:19:47.797Z,101359.73
2018-10-17T14:22:16.385Z,101350.89
2018-10-17T14:24:44.899Z,101360.66
2018-10-17T14:27:13.860Z,101360.86
2018-10-17T14:29:42.461Z,101357.46
2018-10-17T14:32:10.988Z,101354.95
2018-10-17T14:34:39.573Z,101355.80
2018-10-17T14:37:08.313Z,101357.62
2018-10-17T14:39:36.983Z,101356.22
2018-10-17T14:42:05.947Z,101353.23
2018-10-17T14:44:34.550Z,101354.63
2018-10-17T14:47:03.105Z,101357.58
2018-10-17T14:49:31.710Z,101358.77
2018-10-17T14:52:00.503Z,101362.47
2018-10-17T14:54:29.936Z,101361.08
2018-10-17T14:56:58.603Z,101355.16
2018-10-17T14:59:27.770Z,101355.56
2018-10-17T15:01:56.988Z,101363.11
2018-10-17T15:04:25.996Z,101356.52
2018-10-17T15:06:54.548Z,101362.33
2018-10-17T15:09:24.166Z,101358.30
2018-10-17T15:11:53.174Z,101364.14
2018-10-17T15:14:21.672Z,101362.54
2018-10-17T15:16:50.595Z,101353.33
2018-10-17T15:19:19.193Z,101364.22
2018-10-17T15:21:47.772Z,101363.73
2018-10-17T15:24:16.403Z,101359.41
2018-10-17T15:26:45.015Z,101360.13
2018-10-17T15:29:13.581Z,101363.27
2018-10-17T15:31:42.420Z,101360.02
2018-10-17T15:34:11.180Z,101358.97
2018-10-17T15:36:39.776Z,101368.97
2018-10-17T15:39:10.335Z,101368.17
2018-10-17T15:41:39.801Z,101370.58
2018-10-17T15:44:09.002Z,101379.72
2018-10-17T15:46:38.513Z,101372.66
2018-10-17T15:49:07.370Z,101380.11
2018-10-17T15:51:36.124Z,101383.15
2018-10-17T15:54:04.832Z,101384.86
2018-10-17T15:56:34.439Z,101386.15
2018-10-17T15:59:03.925Z,101386.92
2018-10-17T16:01:33.418Z,101390.23
2018-10-17T16:04:02.054Z,101389.26
2018-10-17T16:06:30.669Z,101395.12
2018-10-17T16:09:00.287Z,101392.90
2018-10-17T16:11:28.938Z,101392.86
2018-10-17T16:13:58.435Z,101396.72
2018-10-17T16:16:28.021Z,101397.13
2018-10-17T16:18:58.582Z,101389.97
2018-10-17T16:21:28.155Z,101391.66
2018-10-17T16:23:57.490Z,101388.04
2018-10-17T16:26:27.270Z,101386.62
2018-10-17T16:28:56.821Z,101389.04
2018-10-17T16:31:25.665Z,101397.89
2018-10-17T16:33:55.503Z,101393.34
2018-10-17T16:36:25.635Z,101400.95
2018-10-17T16:38:55.387Z,101403.38
2018-10-17T16:41:24.098Z,101404.66
2018-10-17T16:43:52.747Z,101405.25
2018-10-17T16:46:21.656Z,101410.91
2018-10-17T16:48:51.220Z,101410.33
2018-10-17T16:51:20.786Z,101414.47
2018-10-17T16:53:50.329Z,101413.11
2018-10-17T16:56:18.940Z,101415.38
2018-10-17T16:58:48.398Z,101422.78
2018-10-17T17:01:16.996Z,101423.57
2018-10-17T17:03:46.566Z,101424.89
2018-10-17T17:06:15.218Z,101426.59
2018-10-17T17:08:43.770Z,101428.65
2018-10-17T17:11:12.990Z,101431.66
2018-10-17T17:13:42.085Z,101434.08
2018-10-17T17:16:10.784Z,101438.23
2018-10-17T17:18:39.347Z,101437.11
2018-10-17T17:21:08.018Z,101442.07
2018-10-17T17:23:37.611Z,101439.64
2018-10-17T17:26:07.149Z,101444.75
2018-10-17T17:28:35.736Z,101439.50
2018-10-17T17:31:05.569Z,101448.02
2018-10-17T17:33:34.226Z,101443.62
2018-10-17T17:36:02.867Z,101443.45
2018-10-17T17:38:31.514Z,101438.83
2018-10-17T17:41:00.116Z,101438.41
2018-10-17T17:43:29.706Z,101433.18
2018-10-17T17:45:59.373Z,101434.63
2018-10-17T17:48:27.984Z,101441.34
2018-10-17T17:50:57.304Z,101437.55
2018-10-17T17:53:27.503Z,101442.96
2018-10-17T17:55:56.613Z,101435.72
2018-10-17T17:58:25.888Z,101436.92
2018-10-17T18:00:54.764Z,101433.73
2018-10-17T18:03:24.980Z,101428.83
2018-10-17T18:05:55.025Z,101431.19
2018-10-17T18:08:23.874Z,101429.73
2018-10-17T18:10:53.975Z,101435.56
2018-10-17T18:13:22.541Z,101436.13
2018-10-17T18:15:51.999Z,101436.72
2018-10-17T18:18:21.556Z,101434.98
2018-10-17T18:20:50.916Z,101441.67
2018-10-17T18:23:19.498Z,101445.20
2018-10-17T18:25:48.047Z,101446.63
2018-10-17T18:28:16.715Z,101448.03
2018-10-17T18:30:46.113Z,101446.89
2018-10-17T18:33:15.590Z,101446.98
2018-10-17T18:35:44.282Z,101442.78
2018-10-17T18:38:12.879Z,101442.16
2018-10-17T18:40:42.886Z,101447.69
2018-10-17T18:43:11.418Z,101450.00
2018-10-17T18:45:40.979Z,101450.09
2018-10-17T18:48:10.618Z,101451.55
2018-10-17T18:50:40.174Z,101453.91
2018-10-17T18:53:09.649Z,101444.16
2018-10-17T18:55:38.236Z,101451.22
2018-10-17T18:58:07.799Z,101455.73
2018-10-17T19:00:37.417Z,101458.34
2018-10-17T19:03:06.592Z,101458.77
2018-10-17T19:05:36.161Z,101457.04
2018-10-17T19:08:06.262Z,101456.22
2018-10-17T19:10:34.996Z,101457.19
2018-10-17T19:13:04.013Z,101458.97
2018-10-17T19:15:32.583Z,101459.97
2018-10-17T19:18:01.305Z,101457.97
2018-10-17T19:20:29.951Z,101459.41
2018-10-17T19:22:58.569Z,101464.17
2018-10-17T19:25:28.337Z,101464.56
2018-10-17T19:27:57.911Z,101465.33
2018-10-17T19:30:27.135Z,101463.78
2018-10-17T19:32:56.095Z,101466.61
2018-10-17T19:35:24.666Z,101467.75
2018-10-17T19:37:53.293Z,101471.40
2018-10-17T19:40:21.850Z,101470.16
2018-10-17T19:42:50.928Z,101474.45
2018-10-17T19:45:19.905Z,101466.64
2018-10-17T19:47:48.710Z,101467.09
2018-10-17T19:50:17.613Z,101467.03
2018-10-17T19:52:46.251Z,101471.23
2018-10-17T19:55:14.912Z,101466.69
2018-10-17T19:57:43.531Z,101468.64
2018-10-17T20:00:14.752Z,101468.69
2018-10-17T20:02:44.061Z,101470.55
2018-10-17T20:05:13.009Z,101476.63
2018-10-17T20:07:41.655Z,101472.41
2018-10-17T20:10:10.342Z,101469.02
2018-10-17T20:12:38.979Z,101467.84
2018-10-17T20:15:07.837Z,101465.77
2018-10-17T20:17:36.398Z,101474.98
2018-10-17T20:20:06.853Z,101477.87
2018-10-17T20:22:35.417Z,101471.48
2018-10-17T20:25:05.279Z,101469.86
2018-10-17T20:27:34.071Z,101467.26
2018-10-17T20:30:02.648Z,101465.00
2018-10-17T20:32:31.221Z,101462.91
2018-10-17T20:35:00.763Z,101465.11
2018-10-17T20:37:29.343Z,101462.63
2018-10-17T20:39:58.740Z,101459.19
2018-10-17T20:42:28.123Z,101463.61
2018-10-17T20:44:58.537Z,101463.23
2018-10-17T20:47:27.995Z,101468.44
2018-10-17T20:49:57.306Z,101468.84
2018-10-17T20:52:28.086Z,101475.47
2018-10-17T20:54:56.931Z,101474.34
2018-10-17T20:57:27.843Z,101473.18
2018-10-17T20:59:56.866Z,101471.88
2018-10-17T21:02:26.762Z,101476.95
2018-10-17T21:04:56.734Z,101475.97
2018-10-17T21:07:25.763Z,101471.33
2018-10-17T21:09:55.037Z,101468.85
2018-10-17T21:12:23.615Z,101470.50
2018-10-17T21:14:52.278Z,101474.67
2018-10-17T21:17:20.790Z,101476.16
2018-10-17T21:19:49.363Z,101466.73
2018-10-17T21:22:18.165Z,101461.67
2018-10-17T21:24:47.006Z,101465.59
2018-10-17T21:27:16.104Z,101463.06
2018-10-17T21:29:44.833Z,101468.89
2018-10-17T21:32:13.902Z,101464.77
2018-10-17T21:34:43.281Z,101460.94
2018-10-17T21:37:12.103Z,101453.83
2018-10-17T21:39:40.720Z,101455.64
2018-10-17T21:42:09.262Z,101452.27
2018-10-17T21:44:37.823Z,101458.69
2018-10-17T21:47:06.777Z,101451.86
2018-10-17T21:49:36.047Z,101455.41
2018-10-17T21:52:04.909Z,101451.58
2018-10-17T21:54:33.433Z,101455.02
2018-10-17T21:57:01.944Z,101460.28
2018-10-17T21:59:30.513Z,101449.56
2018-10-17T22:01:59.108Z,101453.05
2018-10-17T22:04:28.089Z,101452.61
2018-10-17T22:06:58.570Z,101453.91
2018-10-17T22:09:27.491Z,101453.95
2018-10-17T22:11:56.409Z,101448.75
2018-10-17T22:14:25.384Z,101444.47
2018-10-17T22:16:59.328Z,101451.06
2018-10-17T22:19:28.805Z,101451.13
2018-10-17T22:21:58.187Z,101447.23
2018-10-17T22:24:27.593Z,101452.42
2018-10-17T22:26:56.694Z,101454.00
2018-10-17T22:29:26.487Z,101452.09
2018-10-17T22:31:55.856Z,101456.59
2018-10-17T22:34:25.028Z,101455.91
2018-10-17T22:36:54.706Z,101457.27
2018-10-17T22:39:23.284Z,101453.36
2018-10-17T22:41:52.904Z,101459.35
2018-10-17T22:44:21.437Z,101460.71
2018-10-17T22:46:50.887Z,101461.25
2018-10-17T22:49:20.486Z,101459.16
2018-10-17T22:51:50.016Z,101462.33
2018-10-17T22:54:19.456Z,101455.98
2018-10-17T22:56:48.915Z,101453.05
2018-10-17T22:59:18.403Z,101447.81
2018-10-17T23:01:47.931Z,101455.13
2018-10-17T23:04:17.486Z,101453.28
2018-10-17T23:06:47.093Z,101450.73
2018-10-17T23:09:16.498Z,101453.23
2018-10-17T23:11:45.972Z,101452.28
2018-10-17T23:14:14.594Z,101446.20
2018-10-17T23:16:44.171Z,101451.23
2018-10-17T23:19:13.086Z,101446.16
2018-10-17T23:21:42.527Z,101445.81
2018-10-17T23:24:12.184Z,101448.42
2018-10-17T23:26:41.794Z,101453.22
2018-10-17T23:29:11.298Z,101455.69
2018-10-17T23:31:40.783Z,101452.64
2018-10-17T23:34:09.399Z,101446.67
2018-10-17T23:36:39.016Z,101451.57
2018-10-17T23:39:09.581Z,101449.58
2018-10-17T23:41:38.690Z,101447.08
2018-10-17T23:44:07.301Z,101444.97
2018-10-17T23:46:36.917Z,101449.67
2018-10-17T23:49:06.442Z,101450.95
2018-10-17T23:51:35.862Z,101448.41
2018-10-17T23:54:04.974Z,101448.56
2018-10-17T23:56:33.533Z,101447.36
2018-10-17T23:59:03.082Z,101448.22
